Terminal Aerodrome Forecast
Issued by NWS

Home | Current Version | Previous Version | Text Only | Print | Product List | Glossary On
Versions: 1 2 3 4 5 6 7 8 9 10 11 12 13 14 15 16 17 18 19 20
000
FTUS44 KTSA 271720
TAFRVS
TAF
KRVS 271720Z 2718/2818 20006KT P6SM SCT250
     FM280100 15002KT P6SM SKC
      TEMPO 2809/2813 2SM BR
     FM281500 15005KT P6SM SCT250=

USA.gov is the U.S. government's official web portal to all federal, state and local government web resources and services.